Winter, WI (54896)

11:47 AM CDT on May 28, 2017 (GMT -0500)
County Hwy G-Across from Ojibwa Park | | Change Station

Elev 1359 ft 45.81 °N, 91.09 °W | Updated 8 seconds ago

Overcast
Overcast
58.2 °F
Feels Like 58.2 °F
N
1.0
Wind Variable Wind from ESE

Today
High -- | Low -- °F
--% Chance of Precip.
Yesterday
High -- | Low -- °F
Precip. -- in
Pressure 29.69 in
Visibility 10.0 miles
Clouds Scattered Clouds 3000 ft
Scattered Clouds 3900 ft
Scattered Clouds 5500 ft
Dew Point 54 °F
Humidity 88%
Rainfall 0.12 in
Snow Depth Not available.
5:19 AM 8:43 PM
Waxing Crescent, 12% visible
METAR KRCX 281635Z AUTO 23009KT 10SM SCT030 SCT039 SCT055 19/11 A2969 RMK AO2 LTG DSNT NW T01880110
Pressure 29.69 in
Visibility 10.0 miles
Clouds Scattered Clouds 3000 ft
Scattered Clouds 3900 ft
Scattered Clouds 5500 ft
Dew Point 54 °F
Humidity 88%
Rainfall 0.12 in
Snow Depth Not available.
5:19 AM 8:43 PM
Waxing Crescent, 12% visible
METAR KRCX 281635Z AUTO 23009KT 10SM SCT030 SCT039 SCT055 19/11 A2969 RMK AO2 LTG DSNT NW T01880110

Get Severe Weather Alerts

Thanks for signing up!

Be on the lookout for a verification email in your inbox.

You'll start receiving the daily forecast at 6 AM.

×

10-Day Weather Forecast

Almanac

Astronomy

May. 28, 2017 Rise Set
Actual Time
Civil Twilight
Nautical Twilight
Astronomical Twilight
Moon
Length of Visible Light
Length of Day
Tomorrow will be .
, % of the Moon is Illuminated

Today's Extremes

State Highs State Lows

Community

WunderPhotos

Category 6

Welcome to Category 6. This is the collective home for Weather Underground's featured writeups by Dr. Jeff Masters (right), Bob Henson (left), Chris Burt, and other regular contributors.

Nearby

Air Quality

  Air Quality AQ Index Pollutant
Not available.

Snow Depth

Station Depth Elevation

Earthquake Activity

City Distance Mag. Time & Date
Minimum magnitude displayed is 2.5.

Coastal Water Temperatures

Place Temperature

Stations

Nearby Weather Stations

Station Location Temp. Windchill Dew Point Humidity Wind Precip. Elev Updated Type
                   

Watches & Warnings

There are currently no watches in effect.